Time;durP1;ratioP1;P1;durP2;ratioP2;P2;SDS_P1;SDS_P2;PMS_P1;PMS_P2;Temp;Humidity;BMP_temperature;BMP_pressure;BME280_temperature;BME280_humidity;BME280_pressure;Samples;Min_cycle;Max_cycle;Signal;HPM_P1;HPM_P2
2023/12/13 00:00:26;;;;;;;15.97;10.47;;;5.50;99.90;;;;;;5020741;28;20627;-82
2023/12/13 00:02:53;;;;;;;15.80;10.67;;;5.50;99.90;;;;;;5018518;28;20300;-81
2023/12/13 00:05:20;;;;;;;16.40;9.83;;;5.50;99.90;;;;;;5004551;28;20772;-82
2023/12/13 00:07:46;;;;;;;17.40;10.47;;;5.50;99.90;;;;;;5018742;28;20262;-82
2023/12/13 00:10:13;;;;;;;18.50;10.27;;;5.50;99.90;;;;;;5020123;28;20323;-83
2023/12/13 00:12:40;;;;;;;14.10;10.57;;;5.50;99.90;;;;;;5006086;28;20327;-82
2023/12/13 00:15:09;;;;;;;16.93;10.57;;;5.50;99.90;;;;;;5005174;28;20247;-82
2023/12/13 00:17:36;;;;;;;15.83;10.50;;;5.50;99.90;;;;;;4971948;28;1062302;-82
2023/12/13 00:20:05;;;;;;;17.37;10.27;;;5.50;99.90;;;;;;5010406;28;20218;-82
2023/12/13 00:22:32;;;;;;;18.23;10.20;;;5.40;99.90;;;;;;5019225;28;20229;-81
2023/12/13 00:24:59;;;;;;;17.47;10.30;;;5.40;99.90;;;;;;5005441;28;20225;-81
2023/12/13 00:27:26;;;;;;;17.63;10.23;;;5.30;99.90;;;;;;5031369;28;20750;-81
2023/12/13 00:29:53;;;;;;;18.43;10.53;;;5.30;99.90;;;;;;5012558;28;20257;-81
2023/12/13 00:32:21;;;;;;;17.27;10.60;;;5.40;99.90;;;;;;5022070;28;20811;-81
2023/12/13 00:34:48;;;;;;;18.73;10.47;;;5.30;99.90;;;;;;5005733;28;20228;-82
2023/12/13 00:37:15;;;;;;;15.40;9.93;;;5.40;99.90;;;;;;5014823;28;20279;-82
2023/12/13 00:39:42;;;;;;;16.10;10.07;;;5.40;99.90;;;;;;5008481;28;20737;-83
2023/12/13 00:42:08;;;;;;;15.43;9.93;;;5.40;99.90;;;;;;5006539;28;20219;-84
2023/12/13 00:44:36;;;;;;;17.37;9.83;;;5.40;99.90;;;;;;5015013;28;20285;-84
2023/12/13 00:47:04;;;;;;;13.47;9.17;;;5.40;99.90;;;;;;5014125;28;20733;-85
2023/12/13 00:49:32;;;;;;;13.17;9.20;;;5.30;99.90;;;;;;5019092;28;20917;-83
2023/12/13 00:51:59;;;;;;;39.53;11.37;;;5.30;99.90;;;;;;5029599;28;20304;-83
2023/12/13 00:54:25;;;;;;;14.63;9.60;;;5.30;99.90;;;;;;5020919;28;20229;-84
2023/12/13 00:56:52;;;;;;;14.47;9.10;;;5.30;99.90;;;;;;5001438;28;20796;-82
2023/12/13 00:59:19;;;;;;;14.83;8.37;;;5.20;99.90;;;;;;5023344;28;20310;-83
2023/12/13 01:01:46;;;;;;;14.60;9.67;;;5.20;99.90;;;;;;5024661;28;20229;-83
2023/12/13 01:04:13;;;;;;;12.03;8.37;;;5.20;99.90;;;;;;5011077;28;20260;-83
2023/12/13 01:06:42;;;;;;;12.33;8.23;;;5.20;99.90;;;;;;5002856;28;20251;-83
2023/12/13 01:09:09;;;;;;;11.23;7.73;;;5.20;99.90;;;;;;5015022;28;20213;-83
2023/12/13 01:11:36;;;;;;;12.03;7.97;;;5.10;99.90;;;;;;5022869;28;20230;-83
2023/12/13 01:14:04;;;;;;;11.73;6.67;;;5.10;99.90;;;;;;5026154;28;20747;-82
2023/12/13 01:16:31;;;;;;;10.27;7.00;;;5.10;99.90;;;;;;5024924;28;21117;-81
2023/12/13 01:18:58;;;;;;;10.10;6.87;;;5.10;99.90;;;;;;5027182;28;20223;-80
2023/12/13 01:21:24;;;;;;;10.80;6.83;;;5.00;99.90;;;;;;5037612;28;20304;-82
2023/12/13 01:23:53;;;;;;;8.70;6.23;;;5.00;99.90;;;;;;5001159;28;20227;-82
2023/12/13 01:26:20;;;;;;;10.17;6.20;;;4.90;99.90;;;;;;5008099;28;20713;-82
2023/12/13 01:28:46;;;;;;;11.13;6.10;;;4.90;99.90;;;;;;4999866;28;20312;-81
2023/12/13 01:31:13;;;;;;;8.57;5.97;;;4.90;99.90;;;;;;5000552;28;20221;-80
2023/12/13 01:33:41;;;;;;;8.60;5.73;;;4.90;99.90;;;;;;5017407;28;20226;-81
2023/12/13 01:36:08;;;;;;;9.30;6.50;;;4.90;99.90;;;;;;5006090;28;20667;-82
2023/12/13 01:38:36;;;;;;;8.47;5.90;;;4.90;99.90;;;;;;5027207;28;20832;-82
2023/12/13 01:41:06;;;;;;;8.27;5.30;;;4.90;99.90;;;;;;5027530;28;20228;-82
2023/12/13 01:43:33;;;;;;;15.87;6.20;;;4.90;99.90;;;;;;5031004;28;20267;-81
2023/12/13 01:46:00;;;;;;;8.63;5.20;;;4.90;99.90;;;;;;5027698;28;20240;-81
2023/12/13 01:48:28;;;;;;;9.20;5.70;;;4.90;99.90;;;;;;5032168;28;20321;-81
2023/12/13 01:50:56;;;;;;;6.43;5.20;;;4.90;99.90;;;;;;5008272;28;20236;-81
2023/12/13 01:53:26;;;;;;;7.20;5.17;;;4.80;99.90;;;;;;5021211;28;20220;-81
2023/12/13 01:55:54;;;;;;;6.53;5.13;;;4.90;99.90;;;;;;5007628;28;20228;-81
2023/12/13 01:58:23;;;;;;;7.30;5.40;;;4.80;99.90;;;;;;5027586;28;20764;-81
2023/12/13 02:00:52;;;;;;;8.43;5.10;;;4.80;99.90;;;;;;5035776;28;20792;-81
2023/12/13 02:03:21;;;;;;;8.33;5.50;;;4.80;99.90;;;;;;5026753;28;20258;-81
2023/12/13 02:05:51;;;;;;;6.27;4.80;;;4.80;99.90;;;;;;5032822;28;20810;-81
2023/12/13 02:08:18;;;;;;;8.83;5.23;;;4.80;99.90;;;;;;5014968;28;20789;-81
2023/12/13 02:10:47;;;;;;;6.73;4.70;;;4.80;99.90;;;;;;5027237;28;20269;-82
2023/12/13 02:13:16;;;;;;;6.07;4.73;;;4.80;99.90;;;;;;5015077;28;20224;-82
2023/12/13 02:15:45;;;;;;;9.37;5.17;;;4.70;99.90;;;;;;5016490;28;20326;-83
2023/12/13 02:18:14;;;;;;;10.23;5.47;;;4.70;99.90;;;;;;5025513;28;20443;-82
2023/12/13 02:20:41;;;;;;;12.17;5.50;;;4.80;99.90;;;;;;5025418;28;20227;-82
2023/12/13 02:23:10;;;;;;;12.17;5.27;;;4.70;99.90;;;;;;5029419;28;20927;-82
2023/12/13 02:25:39;;;;;;;7.53;5.03;;;4.70;99.90;;;;;;5028397;28;20313;-83
2023/12/13 02:28:06;;;;;;;7.60;5.70;;;4.60;99.90;;;;;;5014026;28;20300;-82
2023/12/13 02:30:33;;;;;;;13.17;5.63;;;4.60;99.90;;;;;;5047860;28;20756;-81
2023/12/13 02:33:00;;;;;;;8.53;5.37;;;4.60;99.90;;;;;;5030108;28;20761;-82
2023/12/13 02:35:27;;;;;;;9.10;5.43;;;4.60;99.90;;;;;;5012961;28;20242;-82
2023/12/13 02:37:54;;;;;;;8.07;5.77;;;4.60;99.90;;;;;;5009772;28;20294;-82
2023/12/13 02:40:23;;;;;;;8.03;5.23;;;4.50;99.90;;;;;;5022292;28;20773;-81
2023/12/13 02:42:50;;;;;;;8.83;5.60;;;4.50;99.90;;;;;;4999496;28;20224;-81
2023/12/13 02:45:17;;;;;;;9.17;5.27;;;4.60;99.90;;;;;;5013330;28;20243;-83
2023/12/13 02:47:45;;;;;;;6.40;4.43;;;4.50;99.90;;;;;;4988996;28;20657;-80
2023/12/13 02:50:12;;;;;;;8.03;5.00;;;4.50;99.90;;;;;;5006141;28;20278;-81
2023/12/13 02:52:39;;;;;;;7.37;5.53;;;4.50;99.90;;;;;;4990612;28;20226;-81
2023/12/13 02:55:09;;;;;;;8.03;5.13;;;4.50;99.90;;;;;;5012037;28;20235;-81
2023/12/13 02:57:37;;;;;;;9.30;5.43;;;4.40;99.90;;;;;;5013257;28;20242;-80
2023/12/13 03:00:05;;;;;;;8.10;5.20;;;4.40;99.90;;;;;;5010112;28;20286;-81
2023/12/13 03:02:33;;;;;;;8.27;5.43;;;4.40;99.90;;;;;;5023699;28;20265;-81
2023/12/13 03:05:00;;;;;;;9.37;4.93;;;4.40;99.90;;;;;;5027897;28;20233;-81
2023/12/13 03:07:28;;;;;;;9.07;5.40;;;4.40;99.90;;;;;;5027582;28;20957;-82
2023/12/13 03:09:55;;;;;;;7.33;5.03;;;4.40;99.90;;;;;;5028887;28;20302;-82
2023/12/13 03:12:21;;;;;;;7.93;5.27;;;4.40;99.90;;;;;;5018782;28;20288;-81
2023/12/13 03:14:49;;;;;;;11.30;5.67;;;4.40;99.90;;;;;;5025401;28;20289;-81
2023/12/13 03:17:16;;;;;;;13.17;6.03;;;4.40;99.90;;;;;;5025844;28;20324;-81
2023/12/13 03:19:43;;;;;;;27.83;6.70;;;4.40;99.90;;;;;;5027689;28;20235;-81
2023/12/13 03:22:10;;;;;;;7.63;5.33;;;4.50;99.90;;;;;;5017356;28;20297;-81
2023/12/13 03:24:37;;;;;;;8.13;5.23;;;4.40;99.90;;;;;;5033557;28;20228;-83
2023/12/13 03:27:04;;;;;;;11.00;5.43;;;4.40;99.90;;;;;;5027016;28;20227;-83
2023/12/13 03:29:32;;;;;;;21.57;6.40;;;4.40;99.90;;;;;;5021102;28;20218;-82
2023/12/13 03:32:00;;;;;;;8.00;5.43;;;4.40;99.90;;;;;;5013865;28;20219;-82
2023/12/13 03:34:27;;;;;;;7.00;5.13;;;4.40;99.90;;;;;;5025801;28;20239;-83
2023/12/13 03:36:54;;;;;;;6.07;4.80;;;4.50;99.90;;;;;;5027752;28;20290;-83
2023/12/13 03:39:20;;;;;;;6.10;4.97;;;4.50;99.90;;;;;;5039625;28;20305;-83
2023/12/13 03:41:48;;;;;;;5.43;4.37;;;4.50;99.90;;;;;;5040992;28;20917;-83
2023/12/13 03:44:15;;;;;;;30.30;6.70;;;4.50;99.90;;;;;;5036636;28;20230;-82
2023/12/13 03:46:42;;;;;;;6.73;4.53;;;4.50;99.90;;;;;;5020505;28;20869;-82
2023/12/13 03:49:10;;;;;;;7.03;4.40;;;4.50;99.90;;;;;;5013371;28;20223;-83
2023/12/13 03:51:36;;;;;;;6.07;4.73;;;4.50;99.90;;;;;;5026374;28;20281;-83
2023/12/13 03:54:03;;;;;;;6.80;4.07;;;4.50;99.90;;;;;;5032304;28;20227;-82
2023/12/13 03:56:31;;;;;;;6.37;4.70;;;4.50;99.90;;;;;;5012957;28;20231;-82
2023/12/13 03:58:58;;;;;;;5.70;4.47;;;4.50;99.90;;;;;;5031089;28;20861;-83
2023/12/13 04:01:25;;;;;;;6.53;4.50;;;4.50;99.90;;;;;;5025082;28;20321;-82
2023/12/13 04:03:52;;;;;;;6.67;4.53;;;4.40;99.90;;;;;;5026079;28;20597;-82
2023/12/13 04:06:20;;;;;;;5.50;4.33;;;4.50;99.90;;;;;;5006459;28;20260;-82
2023/12/13 04:08:48;;;;;;;14.87;5.23;;;4.50;99.90;;;;;;5011186;28;20790;-81
2023/12/13 04:11:15;;;;;;;6.00;4.77;;;4.50;99.90;;;;;;5007096;28;20279;-80
2023/12/13 04:13:42;;;;;;;5.87;4.77;;;4.50;99.90;;;;;;5010887;28;20231;-82
2023/12/13 04:16:10;;;;;;;5.53;4.20;;;4.50;99.90;;;;;;5019147;28;20353;-82
2023/12/13 04:18:37;;;;;;;6.83;4.40;;;4.50;99.90;;;;;;5015176;28;20260;-80
2023/12/13 04:21:06;;;;;;;8.03;4.30;;;4.50;99.90;;;;;;5029009;28;20836;-81
2023/12/13 04:23:34;;;;;;;7.57;4.67;;;4.50;99.90;;;;;;5030139;28;20251;-81
2023/12/13 04:26:02;;;;;;;12.97;4.90;;;4.50;99.90;;;;;;5027548;28;20226;-82
2023/12/13 04:28:29;;;;;;;17.67;5.33;;;4.50;99.90;;;;;;5026356;28;20235;-83
2023/12/13 04:30:55;;;;;;;6.60;4.40;;;4.50;99.90;;;;;;5032625;28;20315;-83
2023/12/13 04:33:23;;;;;;;8.93;5.03;;;4.50;99.90;;;;;;5013245;28;20228;-83
2023/12/13 04:35:58;;;;;;;6.83;4.73;;;4.50;99.90;;;;;;5026920;28;20243;-83
2023/12/13 04:38:25;;;;;;;5.47;4.30;;;4.50;99.90;;;;;;5022189;28;20230;-82
2023/12/13 04:40:53;;;;;;;10.13;5.13;;;4.50;99.90;;;;;;5030983;28;20227;-82
2023/12/13 04:43:20;;;;;;;7.00;4.67;;;4.50;99.90;;;;;;5023184;28;20235;-84
2023/12/13 04:45:47;;;;;;;7.03;4.80;;;4.50;99.90;;;;;;5011070;28;20238;-83
2023/12/13 04:48:14;;;;;;;6.53;4.50;;;4.50;99.90;;;;;;5022390;28;20231;-83
2023/12/13 04:50:41;;;;;;;6.73;5.07;;;4.50;99.90;;;;;;5027941;28;20225;-83
2023/12/13 04:53:07;;;;;;;5.83;4.90;;;4.50;99.90;;;;;;5004123;28;20892;-82
2023/12/13 04:55:34;;;;;;;5.63;4.73;;;4.50;99.90;;;;;;5026425;28;20235;-84
2023/12/13 04:58:03;;;;;;;6.23;5.23;;;4.40;99.90;;;;;;5025537;28;20253;-83
2023/12/13 05:00:29;;;;;;;8.27;4.93;;;4.40;99.90;;;;;;5027247;28;20659;-83
2023/12/13 05:02:56;;;;;;;7.83;5.30;;;4.50;99.90;;;;;;5028389;28;20268;-83
2023/12/13 05:05:23;;;;;;;6.03;5.10;;;4.50;99.90;;;;;;5018364;28;20244;-82
2023/12/13 05:07:50;;;;;;;6.07;4.83;;;4.50;99.90;;;;;;5025181;28;20247;-83
2023/12/13 05:10:17;;;;;;;7.73;4.60;;;4.50;99.90;;;;;;5024972;28;20289;-82
2023/12/13 05:12:44;;;;;;;9.07;4.93;;;4.50;99.90;;;;;;5027121;28;20687;-82
2023/12/13 05:15:12;;;;;;;6.20;4.87;;;4.50;99.90;;;;;;5026181;28;20232;-82
2023/12/13 05:17:39;;;;;;;6.87;4.87;;;4.50;99.90;;;;;;5013524;28;20310;-82
2023/12/13 05:20:08;;;;;;;17.33;6.00;;;4.50;99.90;;;;;;5020273;28;20251;-82
2023/12/13 05:22:35;;;;;;;7.23;5.33;;;4.50;99.90;;;;;;5012235;28;20251;-82
2023/12/13 05:25:02;;;;;;;15.03;5.67;;;4.50;99.90;;;;;;5009425;28;20223;-82
2023/12/13 05:27:29;;;;;;;64.10;8.50;;;4.50;99.90;;;;;;5030386;28;20307;-84
2023/12/13 05:29:56;;;;;;;30.10;6.47;;;4.50;99.90;;;;;;5026568;28;20305;-81
2023/12/13 05:32:24;;;;;;;29.20;7.53;;;4.50;99.90;;;;;;5026213;28;20310;-82
2023/12/13 05:34:50;;;;;;;44.03;7.10;;;4.50;99.90;;;;;;5023761;28;20278;-81
2023/12/13 05:37:17;;;;;;;117.37;11.23;;;4.50;99.90;;;;;;5020673;28;20227;-81
2023/12/13 05:39:45;;;;;;;10.67;5.73;;;4.50;99.90;;;;;;5009730;28;20228;-82
2023/12/13 05:42:12;;;;;;;19.23;5.77;;;4.60;99.90;;;;;;5006148;28;20233;-82
2023/12/13 05:44:40;;;;;;;62.50;9.00;;;4.60;99.90;;;;;;5005317;28;20313;-81
2023/12/13 05:47:08;;;;;;;21.43;6.03;;;4.60;99.90;;;;;;5009369;28;20432;-82
2023/12/13 05:49:37;;;;;;;46.37;7.90;;;4.60;99.90;;;;;;5002931;28;20232;-82
2023/12/13 05:52:04;;;;;;;9.13;6.17;;;4.60;99.90;;;;;;5003143;28;20699;-81
2023/12/13 05:54:31;;;;;;;33.47;8.07;;;4.60;99.90;;;;;;5006153;28;20236;-81
2023/12/13 05:56:58;;;;;;;22.87;6.70;;;4.60;99.90;;;;;;5001829;28;20734;-82
2023/12/13 05:59:25;;;;;;;6.97;5.27;;;4.70;99.90;;;;;;5006120;28;20706;-82
2023/12/13 06:01:52;;;;;;;12.47;6.10;;;4.60;99.90;;;;;;5009470;28;20231;-80
2023/12/13 06:04:19;;;;;;;9.20;6.50;;;4.60;99.90;;;;;;5001869;28;20663;-81
2023/12/13 06:06:48;;;;;;;7.83;5.80;;;4.60;99.90;;;;;;5004259;28;20228;-86
2023/12/13 06:09:15;;;;;;;31.43;7.17;;;4.60;99.90;;;;;;5002517;28;20221;-82
2023/12/13 06:11:42;;;;;;;10.17;5.60;;;4.60;99.90;;;;;;5013881;28;20298;-80
2023/12/13 06:14:08;;;;;;;20.20;6.30;;;4.60;99.90;;;;;;5003741;28;20220;-82
2023/12/13 06:16:35;;;;;;;10.73;6.63;;;4.60;99.90;;;;;;5003179;28;20724;-83
2023/12/13 06:19:02;;;;;;;10.07;6.10;;;4.60;99.90;;;;;;5000751;28;20244;-83
2023/12/13 06:21:29;;;;;;;9.83;5.87;;;4.60;99.90;;;;;;5001801;28;20699;-83
2023/12/13 06:23:57;;;;;;;13.47;6.60;;;4.60;99.90;;;;;;5003832;28;20288;-82
2023/12/13 06:26:23;;;;;;;9.33;6.23;;;4.60;99.90;;;;;;5010735;28;20280;-84
2023/12/13 06:28:51;;;;;;;8.73;6.20;;;4.60;99.90;;;;;;4992381;28;20224;-81
2023/12/13 06:31:18;;;;;;;8.20;5.63;;;4.60;99.90;;;;;;5013852;28;20361;-82
2023/12/13 06:33:46;;;;;;;9.53;5.87;;;4.60;99.90;;;;;;5009950;28;20231;-82
2023/12/13 06:36:12;;;;;;;7.87;5.80;;;4.60;99.90;;;;;;5022948;28;20281;-83
2023/12/13 06:38:40;;;;;;;11.47;5.73;;;4.60;99.90;;;;;;5025917;28;20247;-82
2023/12/13 06:41:08;;;;;;;12.03;6.30;;;4.50;99.90;;;;;;5025372;28;20232;-84
2023/12/13 06:43:36;;;;;;;20.60;6.63;;;4.60;99.90;;;;;;4996009;28;20258;-80
2023/12/13 06:46:03;;;;;;;10.07;6.13;;;4.60;99.90;;;;;;5024238;28;20237;-82
2023/12/13 06:48:30;;;;;;;9.00;6.00;;;4.50;99.90;;;;;;5021438;28;20235;-82
2023/12/13 06:50:57;;;;;;;8.57;6.03;;;4.50;99.90;;;;;;4998424;28;20243;-82
2023/12/13 06:53:24;;;;;;;7.93;5.67;;;4.50;99.90;;;;;;5016315;28;20430;-83
2023/12/13 06:55:51;;;;;;;8.30;5.87;;;4.60;99.90;;;;;;5030028;28;20242;-82
2023/12/13 06:58:20;;;;;;;8.07;5.83;;;4.60;99.90;;;;;;5025808;28;20237;-82
2023/12/13 07:00:48;;;;;;;9.67;5.63;;;4.50;99.90;;;;;;4995981;28;20233;-81
2023/12/13 07:03:16;;;;;;;11.00;5.90;;;4.50;99.90;;;;;;4998442;28;20273;-82
2023/12/13 07:05:42;;;;;;;9.47;5.50;;;4.50;99.90;;;;;;5008189;28;20232;-82
2023/12/13 07:08:09;;;;;;;8.90;5.27;;;4.50;99.90;;;;;;4995998;28;20700;-83
2023/12/13 07:10:36;;;;;;;8.67;5.70;;;4.50;99.90;;;;;;5011833;28;20722;-82
2023/12/13 07:13:03;;;;;;;8.27;5.77;;;4.50;99.90;;;;;;5011390;28;20278;-81
2023/12/13 07:15:31;;;;;;;7.63;5.40;;;4.50;99.90;;;;;;5025344;28;20228;-83
2023/12/13 07:17:57;;;;;;;10.30;5.67;;;4.40;99.90;;;;;;5008901;28;20241;-83
2023/12/13 07:20:24;;;;;;;9.73;5.47;;;4.50;99.90;;;;;;5012730;28;20258;-83
2023/12/13 07:22:51;;;;;;;9.47;5.67;;;4.40;99.90;;;;;;5019424;28;20222;-83
2023/12/13 07:25:18;;;;;;;8.60;5.87;;;4.40;99.90;;;;;;5035230;28;20227;-82
2023/12/13 07:27:45;;;;;;;6.60;5.33;;;4.40;99.90;;;;;;5039045;28;20223;-83
2023/12/13 07:30:12;;;;;;;8.97;5.63;;;4.40;99.90;;;;;;5034036;28;20242;-82
2023/12/13 07:32:42;;;;;;;9.23;5.83;;;4.40;99.90;;;;;;5025323;28;20231;-83
2023/12/13 07:35:09;;;;;;;23.60;6.90;;;4.30;99.90;;;;;;5012058;28;20227;-82
2023/12/13 07:37:36;;;;;;;7.77;5.40;;;4.30;99.90;;;;;;5025453;28;20708;-83
2023/12/13 07:40:06;;;;;;;7.53;5.73;;;4.30;99.90;;;;;;5032797;28;20257;-83
2023/12/13 07:42:33;;;;;;;5.97;5.13;;;4.30;99.90;;;;;;5030008;28;20222;-82
2023/12/13 07:45:02;;;;;;;8.53;5.73;;;4.30;99.90;;;;;;5015032;28;20592;-82
2023/12/13 07:47:30;;;;;;;7.50;5.33;;;4.30;99.90;;;;;;5018607;28;20255;-82
2023/12/13 07:49:58;;;;;;;10.23;5.70;;;4.30;99.90;;;;;;5014963;28;20310;-82
2023/12/13 07:52:25;;;;;;;8.10;5.60;;;4.30;99.90;;;;;;5000413;28;20238;-82
2023/12/13 07:54:52;;;;;;;6.83;4.87;;;4.30;99.90;;;;;;5028838;28;20255;-83
2023/12/13 07:57:21;;;;;;;46.73;7.80;;;4.30;99.90;;;;;;5004902;28;20291;-83
2023/12/13 07:59:47;;;;;;;8.37;5.40;;;4.30;99.90;;;;;;5012597;28;20700;-83
2023/12/13 08:02:14;;;;;;;17.80;6.07;;;4.30;99.90;;;;;;5016622;28;20291;-83
2023/12/13 08:04:42;;;;;;;6.90;4.90;;;4.30;99.90;;;;;;4998287;28;20228;-82
2023/12/13 08:07:11;;;;;;;6.87;5.23;;;4.30;99.90;;;;;;4997207;28;20227;-83
2023/12/13 08:09:38;;;;;;;6.97;5.03;;;4.30;99.90;;;;;;5000874;28;20303;-83
2023/12/13 08:12:06;;;;;;;6.43;4.93;;;4.40;99.90;;;;;;5010302;28;20283;-83
2023/12/13 08:14:34;;;;;;;81.80;9.20;;;4.30;99.90;;;;;;5023179;28;20236;-82
2023/12/13 08:17:02;;;;;;;5.77;4.90;;;4.40;99.90;;;;;;4992826;28;20228;-83
2023/12/13 08:19:30;;;;;;;7.23;4.83;;;4.40;99.90;;;;;;5035194;28;20236;-83
2023/12/13 08:21:57;;;;;;;7.47;4.93;;;4.40;99.90;;;;;;5014192;28;20283;-83
2023/12/13 08:24:25;;;;;;;8.47;5.20;;;4.40;99.90;;;;;;5014717;28;20538;-82
2023/12/13 08:26:52;;;;;;;10.17;5.43;;;4.30;99.90;;;;;;5016528;28;20243;-82
2023/12/13 08:29:18;;;;;;;7.30;5.37;;;4.40;99.90;;;;;;5016524;28;20239;-82
2023/12/13 08:31:46;;;;;;;6.17;5.20;;;4.40;99.90;;;;;;5023244;28;20225;-83
2023/12/13 08:34:13;;;;;;;6.43;5.23;;;4.40;99.90;;;;;;5009211;28;20227;-83
2023/12/13 08:36:40;;;;;;;7.83;5.50;;;4.40;99.90;;;;;;4997465;28;20577;-82
2023/12/13 08:39:09;;;;;;;7.37;5.47;;;4.40;99.90;;;;;;5007482;28;20252;-84
2023/12/13 08:41:37;;;;;;;8.10;5.63;;;4.40;99.90;;;;;;5011570;28;20220;-83
2023/12/13 08:44:05;;;;;;;7.70;5.17;;;4.40;99.90;;;;;;5016857;28;20227;-83
2023/12/13 08:46:32;;;;;;;6.13;5.07;;;4.40;99.90;;;;;;5007808;28;20251;-83
2023/12/13 08:48:59;;;;;;;7.93;5.17;;;4.40;99.90;;;;;;5003234;28;20228;-83
2023/12/13 08:51:26;;;;;;;8.13;6.40;;;4.40;99.90;;;;;;5020223;28;20277;-83
2023/12/13 08:53:55;;;;;;;7.77;5.77;;;4.30;99.90;;;;;;5009243;28;20678;-82
2023/12/13 08:56:22;;;;;;;8.63;5.90;;;4.30;99.90;;;;;;5007180;28;20295;-83
2023/12/13 08:58:50;;;;;;;7.83;5.93;;;4.30;99.90;;;;;;5009927;28;20254;-83
2023/12/13 09:01:17;;;;;;;9.37;6.40;;;4.30;99.90;;;;;;5008470;28;20267;-83
2023/12/13 09:03:44;;;;;;;8.37;5.70;;;4.30;99.90;;;;;;5008208;28;20675;-83
2023/12/13 09:06:12;;;;;;;10.90;5.70;;;4.30;99.90;;;;;;5020893;28;20329;-83
2023/12/13 09:08:39;;;;;;;9.07;5.97;;;4.30;99.90;;;;;;5018146;28;20455;-83
2023/12/13 09:11:07;;;;;;;9.47;6.47;;;4.30;99.90;;;;;;5011826;28;20325;-82
2023/12/13 09:13:34;;;;;;;8.63;6.03;;;4.30;99.90;;;;;;5026125;28;20227;-83
2023/12/13 09:16:04;;;;;;;10.60;6.20;;;4.30;99.90;;;;;;5009535;28;20232;-85
2023/12/13 09:18:31;;;;;;;7.87;5.60;;;4.30;99.90;;;;;;5010956;28;20307;-84
2023/12/13 09:20:58;;;;;;;8.97;6.20;;;4.30;99.90;;;;;;5012876;28;20752;-85
2023/12/13 09:23:27;;;;;;;10.17;5.80;;;4.30;99.90;;;;;;5011134;28;20253;-84
2023/12/13 09:25:54;;;;;;;8.33;5.77;;;4.30;99.90;;;;;;5025316;28;20712;-84
2023/12/13 09:28:22;;;;;;;8.77;6.20;;;4.30;99.90;;;;;;5019726;28;20232;-84
2023/12/13 09:30:49;;;;;;;8.77;5.70;;;4.30;99.90;;;;;;5026784;28;20303;-84
2023/12/13 09:33:17;;;;;;;8.07;5.50;;;4.30;99.90;;;;;;5015238;28;20242;-84
2023/12/13 09:35:44;;;;;;;9.30;5.77;;;4.30;99.90;;;;;;5031837;28;20261;-84
2023/12/13 09:38:11;;;;;;;8.67;6.07;;;4.30;99.90;;;;;;5027036;28;20251;-85
2023/12/13 09:40:38;;;;;;;8.83;6.10;;;4.30;99.90;;;;;;5017436;28;20251;-84
2023/12/13 09:43:05;;;;;;;9.73;6.17;;;4.20;99.90;;;;;;5034732;28;20227;-84
2023/12/13 09:45:32;;;;;;;10.37;6.03;;;4.20;99.90;;;;;;5035697;28;20235;-84
2023/12/13 09:47:59;;;;;;;8.63;5.70;;;4.20;99.90;;;;;;5015157;28;20244;-85
2023/12/13 09:50:28;;;;;;;8.37;5.40;;;4.20;99.90;;;;;;5028111;28;20231;-84
2023/12/13 09:52:56;;;;;;;7.67;5.33;;;4.20;99.90;;;;;;4997686;28;20223;-84
2023/12/13 09:55:23;;;;;;;9.80;5.80;;;4.20;99.90;;;;;;5003239;28;20232;-84
2023/12/13 09:57:49;;;;;;;7.40;5.37;;;4.20;99.90;;;;;;5016844;28;20677;-85
2023/12/13 10:00:18;;;;;;;8.50;5.27;;;4.20;99.90;;;;;;5011103;28;20234;-84
2023/12/13 10:02:45;;;;;;;9.00;5.60;;;4.20;99.90;;;;;;5009314;28;20258;-84
2023/12/13 10:05:12;;;;;;;7.53;4.77;;;4.20;99.90;;;;;;5008927;28;20227;-85
2023/12/13 10:07:41;;;;;;;9.70;5.00;;;4.10;99.90;;;;;;4995673;28;20758;-84
2023/12/13 10:10:08;;;;;;;6.57;4.27;;;4.10;99.90;;;;;;5003942;28;20232;-84
2023/12/13 10:12:36;;;;;;;10.80;4.57;;;4.10;99.90;;;;;;5010100;28;20249;-84
2023/12/13 10:15:09;;;;;;;5.43;4.23;;;4.10;99.90;;;;;;5009918;28;20248;-85
2023/12/13 10:17:36;;;;;;;10.03;4.70;;;4.10;99.90;;;;;;5010421;28;20219;-85
2023/12/13 10:20:03;;;;;;;5.90;4.80;;;4.10;99.90;;;;;;5001753;28;20223;-85
2023/12/13 10:22:30;;;;;;;7.00;4.10;;;4.10;99.90;;;;;;5000340;28;20284;-85
2023/12/13 10:24:59;;;;;;;5.53;3.83;;;4.10;99.90;;;;;;4994267;28;20257;-85
2023/12/13 10:27:25;;;;;;;5.80;4.17;;;4.10;99.90;;;;;;5008509;28;20224;-84
2023/12/13 10:29:52;;;;;;;5.17;4.03;;;4.10;99.90;;;;;;5016663;28;20220;-85
2023/12/13 10:32:19;;;;;;;5.07;3.60;;;4.10;99.90;;;;;;5009992;28;20318;-84
2023/12/13 10:34:47;;;;;;;6.43;3.77;;;4.10;99.90;;;;;;5025243;28;20223;-85
2023/12/13 10:37:14;;;;;;;5.40;3.57;;;4.10;99.90;;;;;;4998172;28;20230;-84
2023/12/13 10:39:44;;;;;;;3.97;3.37;;;4.10;99.90;;;;;;5005659;28;20238;-84
2023/12/13 10:42:16;;;;;;;4.60;3.37;;;4.10;99.90;;;;;;5009156;28;20330;-85
2023/12/13 10:44:46;;;;;;;5.50;3.70;;;4.10;99.90;;;;;;5002071;28;20228;-84
2023/12/13 10:47:14;;;;;;;5.67;3.67;;;4.10;99.90;;;;;;5009633;28;20231;-84
2023/12/13 10:49:43;;;;;;;6.40;3.77;;;4.10;99.90;;;;;;5011083;28;21137;-85
2023/12/13 10:52:10;;;;;;;5.17;3.67;;;4.10;99.90;;;;;;5010117;28;20226;-85
2023/12/13 10:54:38;;;;;;;5.50;3.57;;;4.10;99.90;;;;;;5001139;28;20229;-85
2023/12/13 10:57:05;;;;;;;7.57;3.97;;;4.10;99.90;;;;;;4995875;28;20227;-85
2023/12/13 10:59:36;;;;;;;5.87;3.53;;;4.10;99.90;;;;;;5029700;28;20251;-85
2023/12/13 11:02:05;;;;;;;5.83;4.00;;;4.10;99.90;;;;;;5015340;28;20229;-84
2023/12/13 11:04:32;;;;;;;4.40;3.50;;;4.10;99.90;;;;;;5016129;28;20235;-85
2023/12/13 11:07:03;;;;;;;5.83;3.50;;;4.10;99.90;;;;;;5021829;28;20222;-85
2023/12/13 11:09:31;;;;;;;5.73;3.27;;;4.20;99.90;;;;;;5024547;28;20253;-85
2023/12/13 11:11:59;;;;;;;4.43;3.67;;;4.20;99.90;;;;;;5011158;28;20702;-84
2023/12/13 11:14:27;;;;;;;4.50;3.20;;;4.20;99.90;;;;;;5020434;28;20282;-85
2023/12/13 11:16:58;;;;;;;4.20;3.37;;;4.30;99.90;;;;;;5017123;28;20231;-85
2023/12/13 11:19:26;;;;;;;4.57;2.87;;;4.20;99.90;;;;;;5015441;28;20235;-85
2023/12/13 11:21:53;;;;;;;4.60;3.23;;;4.30;99.90;;;;;;5014376;28;20312;-84
2023/12/13 11:24:25;;;;;;;4.83;3.30;;;4.30;99.90;;;;;;5008149;28;20288;-85
2023/12/13 11:26:54;;;;;;;3.60;3.03;;;4.30;99.90;;;;;;5032334;28;20646;-85
2023/12/13 11:29:22;;;;;;;3.67;3.07;;;4.20;99.90;;;;;;5030774;28;20736;-85
2023/12/13 11:31:54;;;;;;;3.40;2.60;;;4.20;99.90;;;;;;5028022;28;20298;-85
2023/12/13 11:34:33;;;;;;;4.73;3.13;;;4.30;99.90;;;;;;5021371;28;20901;-85
2023/12/13 11:37:01;;;;;;;5.87;3.23;;;4.30;99.90;;;;;;5017867;28;20320;-85
2023/12/13 11:39:29;;;;;;;4.50;3.07;;;4.30;99.90;;;;;;5031177;28;20218;-84
2023/12/13 11:41:55;;;;;;;5.40;3.53;;;4.30;99.90;;;;;;5024501;28;20232;-85
2023/12/13 11:44:22;;;;;;;3.67;3.00;;;4.30;99.90;;;;;;5001242;28;20245;-85
2023/12/13 11:46:56;;;;;;;4.40;2.90;;;4.40;99.90;;;;;;5011626;28;20256;-85
2023/12/13 11:49:25;;;;;;;4.73;3.13;;;4.40;99.90;;;;;;5010039;28;20612;-84
2023/12/13 11:51:54;;;;;;;4.13;2.67;;;4.40;99.90;;;;;;5030895;28;20227;-85
2023/12/13 11:54:22;;;;;;;3.70;2.60;;;4.40;99.90;;;;;;5009609;28;20829;-84
2023/12/13 11:56:48;;;;;;;3.60;2.83;;;4.50;99.90;;;;;;5008271;28;20306;-85
2023/12/13 11:59:16;;;;;;;4.47;2.73;;;4.50;99.90;;;;;;5022995;28;20279;-85
2023/12/13 12:01:42;;;;;;;5.40;3.03;;;4.50;99.90;;;;;;5011572;28;20250;-85
2023/12/13 12:04:10;;;;;;;4.07;3.00;;;4.40;99.90;;;;;;5007343;28;20303;-85
2023/12/13 12:06:45;;;;;;;4.00;2.87;;;4.50;99.90;;;;;;5023359;28;20696;-85
2023/12/13 12:09:13;;;;;;;5.70;2.93;;;4.50;99.90;;;;;;5018417;28;20228;-85
2023/12/13 12:11:40;;;;;;;4.50;2.80;;;4.40;99.90;;;;;;5015835;28;20232;-84
2023/12/13 12:14:09;;;;;;;3.33;2.60;;;4.50;99.90;;;;;;5028505;28;20295;-85
2023/12/13 12:16:36;;;;;;;4.10;2.80;;;4.40;99.90;;;;;;5033498;28;20245;-85
2023/12/13 12:19:04;;;;;;;3.47;2.67;;;4.40;99.90;;;;;;5029410;28;20231;-85
2023/12/13 12:21:32;;;;;;;3.37;2.50;;;4.40;99.90;;;;;;5032204;28;20315;-84
2023/12/13 12:23:59;;;;;;;4.87;2.90;;;4.40;99.90;;;;;;5016674;28;20215;-85
2023/12/13 12:26:28;;;;;;;4.73;2.87;;;4.40;99.90;;;;;;5014585;28;20773;-85
2023/12/13 12:28:55;;;;;;;2.83;2.53;;;4.40;99.90;;;;;;5025569;28;20235;-85
2023/12/13 12:31:22;;;;;;;2.73;2.20;;;4.40;99.90;;;;;;5014346;28;20255;-85
2023/12/13 12:33:54;;;;;;;2.33;2.13;;;4.40;99.90;;;;;;5017928;28;20232;-85
2023/12/13 12:36:21;;;;;;;4.70;2.70;;;4.40;99.90;;;;;;5020627;28;20231;-85
2023/12/13 12:38:47;;;;;;;4.43;2.60;;;4.40;99.90;;;;;;5009077;28;20253;-85
2023/12/13 12:41:13;;;;;;;2.80;2.20;;;4.40;99.90;;;;;;5024615;28;20619;-84
2023/12/13 12:43:42;;;;;;;2.93;2.50;;;4.40;99.90;;;;;;5021897;28;20379;-84
2023/12/13 12:46:09;;;;;;;4.33;2.50;;;4.40;99.90;;;;;;5013801;28;20578;-83
2023/12/13 12:48:36;;;;;;;4.47;2.47;;;4.40;99.90;;;;;;5017706;28;20288;-85
2023/12/13 12:51:03;;;;;;;3.30;2.13;;;4.50;99.90;;;;;;5019995;28;20273;-85
2023/12/13 12:53:30;;;;;;;4.43;2.67;;;4.50;99.90;;;;;;5027838;28;20325;-84